Time;durP1;ratioP1;P1;durP2;ratioP2;P2;SDS_P1;SDS_P2;PMS_P1;PMS_P2;Temp;Humidity;BMP_temperature;BMP_pressure;BME280_temperature;BME280_humidity;BME280_pressure;Samples;Min_cycle;Max_cycle;Signal;HPM_P1;HPM_P2
2022/04/07 00:00:31;;;;;;;309.73;95.43;;;;;;;;;;6265478;28;20060;-63
2022/04/07 00:03:40;;;;;;;373.33;112.18;;;;;;;;;;6266978;28;20492;-63
2022/04/07 00:06:41;;;;;;;157.88;54.80;;;;;;;;;;6265072;28;20522;-63
2022/04/07 00:09:41;;;;;;;105.82;42.45;;;;;;;;;;6267808;28;20102;-62
2022/04/07 00:12:42;;;;;;;107.15;41.97;;;;;;;;;;6265886;28;20599;-63
2022/04/07 00:15:43;;;;;;;73.70;30.00;;;;;;;;;;6265573;28;20041;-62
2022/04/07 00:18:43;;;;;;;55.03;26.73;;;;;;;;;;6265305;28;20049;-62
2022/04/07 00:21:46;;;;;;;49.53;23.00;;;;;;;;;;6266623;28;20087;-61
2022/04/07 00:24:47;;;;;;;42.92;19.05;;;;;;;;;;6265189;28;20049;-62
2022/04/07 00:27:47;;;;;;;37.75;17.23;;;;;;;;;;6268140;28;20443;-62
2022/04/07 00:30:49;;;;;;;75.68;37.88;;;;;;;;;;6268102;28;20131;-61
2022/04/07 00:33:50;;;;;;;58.85;33.28;;;;;;;;;;6267888;28;20072;-64
2022/04/07 00:36:50;;;;;;;35.85;18.48;;;;;;;;;;6267060;28;20071;-60
2022/04/07 00:39:51;;;;;;;42.58;22.48;;;;;;;;;;6266965;28;20041;-63
2022/04/07 00:42:52;;;;;;;43.10;21.40;;;;;;;;;;6268564;28;20120;-62
2022/04/07 00:45:53;;;;;;;42.30;19.07;;;;;;;;;;6265815;28;20049;-63
2022/04/07 00:48:54;;;;;;;37.97;19.52;;;;;;;;;;6267778;28;20072;-62
2022/04/07 00:51:55;;;;;;;44.25;20.90;;;;;;;;;;6267660;28;20473;-62
2022/04/07 00:54:55;;;;;;;38.53;18.48;;;;;;;;;;6262759;28;20049;-62
2022/04/07 00:57:56;;;;;;;34.08;17.52;;;;;;;;;;6265227;28;20044;-63
2022/04/07 01:00:57;;;;;;;26.90;15.35;;;;;;;;;;6265442;28;20045;-62
2022/04/07 01:03:58;;;;;;;29.23;14.88;;;;;;;;;;6266019;28;20061;-62
2022/04/07 01:06:59;;;;;;;28.48;15.07;;;;;;;;;;6264766;28;20052;-64
2022/04/07 01:09:59;;;;;;;27.23;13.80;;;;;;;;;;6264688;28;20492;-66
2022/04/07 01:13:00;;;;;;;29.42;13.27;;;;;;;;;;6269102;28;20059;-63
2022/04/07 01:16:01;;;;;;;24.17;12.93;;;;;;;;;;6265538;28;20520;-63
2022/04/07 01:19:02;;;;;;;27.35;12.95;;;;;;;;;;6267821;28;20143;-61
2022/04/07 01:22:03;;;;;;;23.42;12.57;;;;;;;;;;6267552;28;20142;-62
2022/04/07 01:25:04;;;;;;;27.40;13.60;;;;;;;;;;6265280;28;20080;-62
2022/04/07 01:28:05;;;;;;;27.83;14.87;;;;;;;;;;6265475;28;20060;-61
2022/04/07 01:31:05;;;;;;;28.70;13.93;;;;;;;;;;6266315;28;20068;-63
2022/04/07 01:34:11;;;;;;;28.55;14.75;;;;;;;;;;6266044;28;20044;-62
2022/04/07 01:37:12;;;;;;;25.95;13.63;;;;;;;;;;6263110;28;20405;-63
2022/04/07 01:40:16;;;;;;;28.70;13.40;;;;;;;;;;6263488;28;20339;-62
2022/04/07 01:43:17;;;;;;;27.77;13.27;;;;;;;;;;6264540;28;20317;-65
2022/04/07 01:46:21;;;;;;;28.63;13.85;;;;;;;;;;6262922;28;20045;-63
2022/04/07 01:49:22;;;;;;;25.50;12.85;;;;;;;;;;6262924;28;20088;-62
2022/04/07 01:52:23;;;;;;;26.00;12.88;;;;;;;;;;6263941;28;20126;-61
2022/04/07 01:55:26;;;;;;;27.08;13.35;;;;;;;;;;6264908;28;20477;-63
2022/04/07 01:58:27;;;;;;;21.88;12.80;;;;;;;;;;6261658;28;20140;-62
2022/04/07 02:01:27;;;;;;;25.17;12.90;;;;;;;;;;6266569;28;20708;-62
2022/04/07 02:04:28;;;;;;;25.17;12.80;;;;;;;;;;6265779;28;20492;-62
2022/04/07 02:07:31;;;;;;;23.92;13.30;;;;;;;;;;6262571;28;20175;-62
2022/04/07 02:10:32;;;;;;;21.88;12.02;;;;;;;;;;6265460;28;20072;-63
2022/04/07 02:13:33;;;;;;;20.13;12.20;;;;;;;;;;6266299;28;20066;-62
2022/04/07 02:16:34;;;;;;;23.55;13.23;;;;;;;;;;6263726;28;20052;-64
2022/04/07 02:19:34;;;;;;;22.52;11.32;;;;;;;;;;6265891;28;20128;-62
2022/04/07 02:22:35;;;;;;;22.00;11.80;;;;;;;;;;6264010;28;20045;-61
2022/04/07 02:25:36;;;;;;;24.75;11.98;;;;;;;;;;6262466;28;20139;-63
2022/04/07 02:28:37;;;;;;;23.50;11.98;;;;;;;;;;6263641;28;20049;-62
2022/04/07 02:31:37;;;;;;;26.90;12.00;;;;;;;;;;6261853;28;20156;-63
2022/04/07 02:34:39;;;;;;;25.25;12.93;;;;;;;;;;6260406;28;20468;-62
2022/04/07 02:37:40;;;;;;;24.48;12.75;;;;;;;;;;6261174;28;20155;-61
2022/04/07 02:40:40;;;;;;;24.35;12.63;;;;;;;;;;6262442;28;20875;-62
2022/04/07 02:43:41;;;;;;;23.95;13.75;;;;;;;;;;6255154;28;20132;-62
2022/04/07 02:46:42;;;;;;;28.27;13.70;;;;;;;;;;6260657;28;20556;-61
2022/04/07 02:49:42;;;;;;;25.25;13.63;;;;;;;;;;6262504;28;20144;-62
2022/04/07 02:52:43;;;;;;;24.60;11.90;;;;;;;;;;6262883;28;20040;-61
2022/04/07 02:56:02;;;;;;;25.92;12.60;;;;;;;;;;6264753;28;20132;-61
2022/04/07 02:59:03;;;;;;;26.95;13.57;;;;;;;;;;6265540;28;20511;-63
2022/04/07 03:02:04;;;;;;;25.15;14.75;;;;;;;;;;6261899;28;20129;-61
2022/04/07 03:05:05;;;;;;;24.17;13.82;;;;;;;;;;6262879;28;20048;-62
2022/04/07 03:08:06;;;;;;;26.75;12.85;;;;;;;;;;6261535;28;20080;-62
2022/04/07 03:11:08;;;;;;;25.35;13.43;;;;;;;;;;6263108;28;20064;-63
2022/04/07 03:14:08;;;;;;;25.67;13.13;;;;;;;;;;6263611;28;20041;-61
2022/04/07 03:17:09;;;;;;;23.13;12.82;;;;;;;;;;6264354;28;20140;-62
2022/04/07 03:20:10;;;;;;;23.30;13.00;;;;;;;;;;6267856;28;20172;-64
2022/04/07 03:23:11;;;;;;;23.90;12.02;;;;;;;;;;6269482;28;20049;-61
2022/04/07 03:26:12;;;;;;;20.95;11.52;;;;;;;;;;6264804;28;20040;-63
2022/04/07 03:29:13;;;;;;;21.42;11.48;;;;;;;;;;6267820;28;20049;-62
2022/04/07 03:32:13;;;;;;;20.00;10.07;;;;;;;;;;6267858;28;20128;-62
2022/04/07 03:35:14;;;;;;;21.27;10.30;;;;;;;;;;6268199;28;20102;-62
2022/04/07 03:38:15;;;;;;;20.67;10.90;;;;;;;;;;6266103;28;20045;-62
2022/04/07 03:41:16;;;;;;;19.13;9.50;;;;;;;;;;6258844;28;20052;-62
2022/04/07 03:44:16;;;;;;;20.58;10.07;;;;;;;;;;6269434;28;20135;-62
2022/04/07 03:47:17;;;;;;;24.80;11.70;;;;;;;;;;6266712;28;20076;-61
2022/04/07 03:50:17;;;;;;;24.67;11.95;;;;;;;;;;6266680;28;20080;-62
2022/04/07 03:53:18;;;;;;;21.95;11.60;;;;;;;;;;6267166;28;20052;-62
2022/04/07 03:56:19;;;;;;;22.73;12.27;;;;;;;;;;6266984;28;20040;-61
2022/04/07 03:59:20;;;;;;;25.85;13.40;;;;;;;;;;6267906;28;20053;-62
2022/04/07 04:02:20;;;;;;;33.70;16.58;;;;;;;;;;6269376;28;20156;-62
2022/04/07 04:05:22;;;;;;;29.17;15.95;;;;;;;;;;6267792;28;20059;-62
2022/04/07 04:08:22;;;;;;;28.17;16.20;;;;;;;;;;6268388;28;20057;-61
2022/04/07 04:11:23;;;;;;;30.20;16.70;;;;;;;;;;6267564;28;20045;-62
2022/04/07 04:14:24;;;;;;;30.55;16.08;;;;;;;;;;6267998;28;20041;-62
2022/04/07 04:17:27;;;;;;;31.02;17.38;;;;;;;;;;6267151;28;20045;-62
2022/04/07 04:20:28;;;;;;;36.30;21.58;;;;;;;;;;6267346;28;20222;-64
2022/04/07 04:23:28;;;;;;;35.03;18.38;;;;;;;;;;6268800;28;20458;-61
2022/04/07 04:26:29;;;;;;;27.98;16.05;;;;;;;;;;6266005;28;20464;-61
2022/04/07 04:29:29;;;;;;;45.00;21.02;;;;;;;;;;6266633;28;20076;-62
2022/04/07 04:32:30;;;;;;;35.08;17.42;;;;;;;;;;6264919;28;20048;-62
2022/04/07 04:35:31;;;;;;;30.65;18.27;;;;;;;;;;6263673;28;20045;-62
2022/04/07 04:38:31;;;;;;;30.67;16.95;;;;;;;;;;6277111;28;20178;-62
2022/04/07 04:41:32;;;;;;;31.33;17.17;;;;;;;;;;6266867;28;20819;-62
2022/04/07 04:44:32;;;;;;;33.60;18.75;;;;;;;;;;6266944;28;20128;-62
2022/04/07 04:47:33;;;;;;;35.92;17.98;;;;;;;;;;6265420;28;20053;-62
2022/04/07 04:50:35;;;;;;;39.42;18.00;;;;;;;;;;6267672;28;20044;-68
2022/04/07 04:53:35;;;;;;;43.07;21.17;;;;;;;;;;6266364;28;20713;-61
2022/04/07 04:56:36;;;;;;;31.70;17.10;;;;;;;;;;6265487;28;20131;-61
2022/04/07 04:59:36;;;;;;;33.13;15.52;;;;;;;;;;6267013;28;20504;-61
2022/04/07 05:02:39;;;;;;;27.92;13.15;;;;;;;;;;6267371;28;20554;-61
2022/04/07 05:05:40;;;;;;;27.65;12.27;;;;;;;;;;6265229;28;20130;-65
2022/04/07 05:08:42;;;;;;;21.88;9.50;;;;;;;;;;6265508;28;20794;-62
2022/04/07 05:11:42;;;;;;;21.15;10.70;;;;;;;;;;6265452;28;20086;-63
2022/04/07 05:14:43;;;;;;;25.50;11.55;;;;;;;;;;6267455;28;20069;-62
2022/04/07 05:17:50;;;;;;;23.55;11.48;;;;;;;;;;6266357;28;20052;-61
2022/04/07 05:20:51;;;;;;;18.50;10.00;;;;;;;;;;6265698;28;20060;-63
2022/04/07 05:23:51;;;;;;;17.90;10.60;;;;;;;;;;6262655;28;20480;-61
2022/04/07 05:26:52;;;;;;;20.60;10.88;;;;;;;;;;6257170;28;20052;-62
2022/04/07 05:29:53;;;;;;;20.17;10.32;;;;;;;;;;6262036;28;20041;-62
2022/04/07 05:32:53;;;;;;;21.00;9.90;;;;;;;;;;6262646;28;20067;-62
2022/04/07 05:35:54;;;;;;;22.08;12.32;;;;;;;;;;6250900;28;20130;-63
2022/04/07 05:38:55;;;;;;;23.65;13.57;;;;;;;;;;6260951;28;20049;-60
2022/04/07 05:41:55;;;;;;;23.23;12.00;;;;;;;;;;6260180;28;20126;-62
2022/04/07 05:44:56;;;;;;;17.40;9.75;;;;;;;;;;6262630;28;20286;-63
2022/04/07 05:47:57;;;;;;;16.70;8.27;;;;;;;;;;6262387;28;20055;-61
2022/04/07 05:50:57;;;;;;;15.95;7.85;;;;;;;;;;6262661;28;20069;-63
2022/04/07 05:53:58;;;;;;;14.50;7.10;;;;;;;;;;6262324;28;20048;-59
2022/04/07 05:56:58;;;;;;;13.20;6.85;;;;;;;;;;6255066;28;20136;-62
2022/04/07 06:00:11;;;;;;;18.35;7.60;;;;;;;;;;6262453;28;20044;-64
2022/04/07 06:03:12;;;;;;;13.45;6.70;;;;;;;;;;6261283;28;20120;-63
2022/04/07 06:06:12;;;;;;;18.30;7.88;;;;;;;;;;6261554;28;20045;-62
2022/04/07 06:09:13;;;;;;;16.63;7.90;;;;;;;;;;6256171;28;20464;-61
2022/04/07 06:12:14;;;;;;;18.83;9.10;;;;;;;;;;6257117;28;20053;-62
2022/04/07 06:15:14;;;;;;;12.50;6.00;;;;;;;;;;6256480;28;20112;-62
2022/04/07 06:18:16;;;;;;;11.27;5.38;;;;;;;;;;6262091;28;20049;-63
2022/04/07 06:21:17;;;;;;;12.75;6.05;;;;;;;;;;6258222;28;20742;-61
2022/04/07 06:24:18;;;;;;;11.88;5.80;;;;;;;;;;6260595;28;20049;-64
2022/04/07 06:27:18;;;;;;;9.75;4.75;;;;;;;;;;6256993;28;20052;-61
2022/04/07 06:30:20;;;;;;;8.93;4.90;;;;;;;;;;6257539;28;20465;-59
2022/04/07 06:33:21;;;;;;;9.93;4.55;;;;;;;;;;6260522;28;20045;-64
2022/04/07 06:36:22;;;;;;;11.02;4.05;;;;;;;;;;6260599;28;20048;-62
2022/04/07 06:39:22;;;;;;;9.65;3.97;;;;;;;;;;6263291;28;20091;-64
2022/04/07 06:42:23;;;;;;;10.63;5.25;;;;;;;;;;6256799;28;20488;-64
2022/04/07 06:45:25;;;;;;;15.13;7.00;;;;;;;;;;6253911;28;20534;-64
2022/04/07 06:48:25;;;;;;;10.13;4.55;;;;;;;;;;6257332;28;20084;-64
2022/04/07 06:51:27;;;;;;;10.65;5.47;;;;;;;;;;6261900;28;20043;-63
2022/04/07 06:54:28;;;;;;;10.80;4.30;;;;;;;;;;6260651;28;20057;-63
2022/04/07 06:57:29;;;;;;;9.65;4.30;;;;;;;;;;6259623;28;20132;-63
2022/04/07 07:00:32;;;;;;;9.45;4.15;;;;;;;;;;6255804;28;20076;-63
2022/04/07 07:03:32;;;;;;;7.88;3.65;;;;;;;;;;6263042;28;20075;-67
2022/04/07 07:06:33;;;;;;;8.55;3.95;;;;;;;;;;6261061;28;20135;-63
2022/04/07 07:09:34;;;;;;;8.70;4.03;;;;;;;;;;6260349;28;20135;-64
2022/04/07 07:12:35;;;;;;;8.43;3.60;;;;;;;;;;6256944;28;20099;-63
2022/04/07 07:15:35;;;;;;;7.60;3.50;;;;;;;;;;6260506;28;20744;-63
2022/04/07 07:18:38;;;;;;;9.90;3.65;;;;;;;;;;6260693;28;20048;-63
2022/04/07 07:21:38;;;;;;;9.43;4.85;;;;;;;;;;6260824;28;20518;-63
2022/04/07 07:24:39;;;;;;;10.23;3.78;;;;;;;;;;6266423;28;20045;-64
2022/04/07 07:27:49;;;;;;;8.45;4.00;;;;;;;;;;6252384;28;20158;-64
2022/04/07 07:30:49;;;;;;;10.63;4.25;;;;;;;;;;6255957;28;20072;-63
2022/04/07 07:33:50;;;;;;;8.55;4.30;;;;;;;;;;6265152;28;20079;-64
2022/04/07 07:36:50;;;;;;;7.13;3.00;;;;;;;;;;6263954;28;20480;-64
2022/04/07 07:39:51;;;;;;;8.50;3.80;;;;;;;;;;6259997;28;20091;-69
2022/04/07 07:42:56;;;;;;;5.22;2.55;;;;;;;;;;6264010;28;20627;-64
2022/04/07 07:45:56;;;;;;;8.27;4.20;;;;;;;;;;6260838;28;20059;-65
2022/04/07 07:49:00;;;;;;;8.20;3.67;;;;;;;;;;6263082;28;20041;-66
2022/04/07 07:52:00;;;;;;;7.30;3.05;;;;;;;;;;6266799;28;20049;-65
2022/04/07 07:55:01;;;;;;;7.22;3.00;;;;;;;;;;6261993;28;20045;-64
2022/04/07 07:58:02;;;;;;;7.70;3.00;;;;;;;;;;6262475;28;20357;-67
2022/04/07 08:01:03;;;;;;;10.57;3.00;;;;;;;;;;6263821;28;20415;-65
2022/04/07 08:04:03;;;;;;;7.40;2.95;;;;;;;;;;6270795;28;20548;-66
2022/04/07 08:07:04;;;;;;;5.05;2.40;;;;;;;;;;6263187;28;20052;-65
2022/04/07 08:10:05;;;;;;;6.10;2.67;;;;;;;;;;6265037;28;20563;-66
2022/04/07 08:13:06;;;;;;;8.13;2.93;;;;;;;;;;6267767;28;20392;-66
2022/04/07 08:16:06;;;;;;;8.52;4.15;;;;;;;;;;6262164;28;20100;-64
2022/04/07 08:19:09;;;;;;;5.82;2.58;;;;;;;;;;6257675;28;20099;-65
2022/04/07 08:22:09;;;;;;;8.20;2.67;;;;;;;;;;6255852;28;20777;-65
2022/04/07 08:25:10;;;;;;;5.82;2.55;;;;;;;;;;6269217;28;20048;-65
2022/04/07 08:28:11;;;;;;;5.55;2.40;;;;;;;;;;6256339;28;20678;-64
2022/04/07 08:31:11;;;;;;;9.15;2.10;;;;;;;;;;6268991;28;20048;-64
2022/04/07 08:34:12;;;;;;;9.85;3.05;;;;;;;;;;6269047;28;20049;-64
2022/04/07 08:37:13;;;;;;;7.32;4.43;;;;;;;;;;6259526;28;20049;-64
2022/04/07 08:40:17;;;;;;;4.30;2.47;;;;;;;;;;6261280;28;20073;-64
2022/04/07 08:43:18;;;;;;;5.13;2.80;;;;;;;;;;6267937;28;20065;-64
2022/04/07 08:46:19;;;;;;;7.20;2.45;;;;;;;;;;6267205;28;20634;-64
2022/04/07 08:49:24;;;;;;;5.60;2.78;;;;;;;;;;6266449;28;20053;-65
2022/04/07 08:52:24;;;;;;;5.85;2.95;;;;;;;;;;6268100;28;20044;-66
2022/04/07 08:55:25;;;;;;;5.45;2.58;;;;;;;;;;6266762;28;20079;-65
2022/04/07 08:58:26;;;;;;;5.47;2.80;;;;;;;;;;6259428;28;20447;-64
2022/04/07 09:01:27;;;;;;;6.53;3.20;;;;;;;;;;6268283;28;20049;-65
2022/04/07 09:04:36;;;;;;;5.07;2.75;;;;;;;;;;6266127;28;20047;-65
2022/04/07 09:07:37;;;;;;;4.70;2.80;;;;;;;;;;6264172;28;20091;-65
2022/04/07 09:10:37;;;;;;;3.95;2.22;;;;;;;;;;6266238;28;20485;-65
2022/04/07 09:13:41;;;;;;;5.82;2.75;;;;;;;;;;6263792;28;20084;-65
2022/04/07 09:16:41;;;;;;;5.38;2.58;;;;;;;;;;6262035;28;20088;-66
2022/04/07 09:37:04;;;;;;;5.43;2.75;;;;;;;;;;6351454;27;20407;-64
2022/04/07 09:40:13;;;;;;;4.35;2.25;;;;;;;;;;6355517;27;20048;-63
2022/04/07 09:43:14;;;;;;;5.25;2.65;;;;;;;;;;6346587;27;20386;-65
2022/04/07 09:46:19;;;;;;;7.35;3.22;;;;;;;;;;6338694;27;20032;-64
2022/04/07 09:49:19;;;;;;;5.50;2.28;;;;;;;;;;6340692;27;21018;-62
2022/04/07 09:52:21;;;;;;;4.10;1.70;;;;;;;;;;6345941;27;20140;-61
2022/04/07 09:55:27;;;;;;;3.50;2.00;;;;;;;;;;6334111;27;21776;-64
2022/04/07 09:58:28;;;;;;;5.43;2.25;;;;;;;;;;6339226;27;20043;-63
2022/04/07 10:01:29;;;;;;;5.37;2.20;;;;;;;;;;6338152;27;20130;-64
2022/04/07 10:04:30;;;;;;;4.55;2.20;;;;;;;;;;6344901;27;20047;-63
2022/04/07 10:07:31;;;;;;;4.10;1.90;;;;;;;;;;6342346;27;20128;-64
2022/04/07 10:10:32;;;;;;;5.18;1.90;;;;;;;;;;6347514;27;20088;-63
2022/04/07 10:13:33;;;;;;;3.55;1.50;;;;;;;;;;6337867;28;20066;-64
2022/04/07 10:16:34;;;;;;;4.03;1.73;;;;;;;;;;6336599;27;20055;-62
2022/04/07 10:20:00;;;;;;;4.55;2.03;;;;;;;;;;6344048;27;20075;-64
2022/04/07 10:23:12;;;;;;;5.05;1.80;;;;;;;;;;6331706;27;20452;-63
2022/04/07 10:26:14;;;;;;;3.65;1.50;;;;;;;;;;6340877;27;20040;-62
2022/04/07 10:29:21;;;;;;;4.07;1.90;;;;;;;;;;6340344;27;20506;-63
2022/04/07 10:32:22;;;;;;;10.90;4.30;;;;;;;;;;6341607;27;20130;-62
2022/04/07 10:35:29;;;;;;;5.47;2.30;;;;;;;;;;6335990;27;20043;-61
2022/04/07 10:38:41;;;;;;;7.25;2.83;;;;;;;;;;6324125;27;20081;-62
2022/04/07 10:41:42;;;;;;;4.63;2.38;;;;;;;;;;6324271;28;20044;-63
2022/04/07 10:45:05;;;;;;;5.75;3.00;;;;;;;;;;6326504;28;20086;-62
2022/04/07 10:48:25;;;;;;;6.97;3.15;;;;;;;;;;6323723;28;20495;-62
2022/04/07 10:51:43;;;;;;;4.25;1.92;;;;;;;;;;6320361;28;20097;-64
2022/04/07 10:55:11;;;;;;;4.32;2.00;;;;;;;;;;6325774;28;20070;-63
2022/04/07 10:58:13;;;;;;;3.70;1.58;;;;;;;;;;6316255;28;20071;-62
2022/04/07 11:01:32;;;;;;;4.07;1.83;;;;;;;;;;6325396;28;20410;-62
2022/04/07 11:04:37;;;;;;;4.40;1.80;;;;;;;;;;6321520;28;20048;-63
2022/04/07 11:07:51;;;;;;;3.00;1.65;;;;;;;;;;6328411;28;20051;-63
2022/04/07 11:10:53;;;;;;;4.22;2.30;;;;;;;;;;6327678;27;20043;-64
2022/04/07 11:13:58;;;;;;;;;;;;;;;;;;6323666;28;20518;-64
2022/04/07 11:17:01;;;;;;;4.95;2.30;;;;;;;;;;6326692;28;20709;-62
2022/04/07 11:20:02;;;;;;;4.07;1.88;;;;;;;;;;6325832;28;20079;-64
2022/04/07 11:23:09;;;;;;;4.83;2.03;;;;;;;;;;6328318;28;20047;-63
2022/04/07 11:26:20;;;;;;;6.68;2.00;;;;;;;;;;6322956;28;20089;-63
2022/04/07 11:29:32;;;;;;;3.85;1.75;;;;;;;;;;6326715;28;20044;-62
2022/04/07 11:32:33;;;;;;;;;;;;;;;;;;6319735;27;20579;-65
2022/04/07 11:35:33;;;;;;;3.63;1.70;;;;;;;;;;6327382;28;20006;-66
2022/04/07 11:38:48;;;;;;;4.35;1.80;;;;;;;;;;6331600;27;20051;-65
2022/04/07 11:41:48;;;;;;;4.88;1.95;;;;;;;;;;6319602;28;20052;-67
2022/04/07 11:44:57;;;;;;;3.70;1.70;;;;;;;;;;6324243;28;20058;-64
2022/04/07 11:47:57;;;;;;;4.05;1.85;;;;;;;;;;6320243;27;20079;-64
2022/04/07 11:51:02;;;;;;;3.83;1.95;;;;;;;;;;6324210;28;20035;-65
2022/04/07 11:54:03;;;;;;;5.07;2.45;;;;;;;;;;6327783;28;20060;-66
2022/04/07 11:57:05;;;;;;;4.97;2.30;;;;;;;;;;6322559;28;20454;-66
2022/04/07 12:00:07;;;;;;;3.70;2.25;;;;;;;;;;6301962;28;20405;-64
2022/04/07 12:03:08;;;;;;;6.25;2.80;;;;;;;;;;6326074;28;20563;-63
2022/04/07 12:06:09;;;;;;;7.85;2.58;;;;;;;;;;6323130;28;20118;-65
2022/04/07 12:09:10;;;;;;;4.53;2.70;;;;;;;;;;6333848;28;20361;-65
2022/04/07 12:12:12;;;;;;;4.78;2.40;;;;;;;;;;6322058;28;20047;-65
2022/04/07 12:15:15;;;;;;;5.32;2.30;;;;;;;;;;6324683;28;20048;-65
2022/04/07 12:18:26;;;;;;;4.32;2.10;;;;;;;;;;6323810;28;20494;-66
2022/04/07 12:21:29;;;;;;;4.13;2.17;;;;;;;;;;6321223;28;20051;-65
2022/04/07 12:24:29;;;;;;;;;;;;;;;;;;6321176;27;20159;-65
2022/04/07 12:27:32;;;;;;;3.45;1.77;;;;;;;;;;6322585;28;19937;-66
2022/04/07 12:30:45;;;;;;;3.72;1.90;;;;;;;;;;6313874;28;20048;-65
2022/04/07 12:33:48;;;;;;;4.22;1.85;;;;;;;;;;6322772;28;20060;-67
2022/04/07 12:36:49;;;;;;;5.43;2.30;;;;;;;;;;6318056;28;20052;-68
2022/04/07 12:39:49;;;;;;;4.30;2.53;;;;;;;;;;6317154;28;20522;-67
2022/04/07 12:42:51;;;;;;;9.05;3.15;;;;;;;;;;6320900;28;20478;-66
2022/04/07 12:45:59;;;;;;;5.78;3.20;;;;;;;;;;6322115;28;20066;-66
2022/04/07 12:49:05;;;;;;;5.28;2.50;;;;;;;;;;6318884;28;20055;-65
2022/04/07 12:52:08;;;;;;;6.40;2.70;;;;;;;;;;6320167;28;21038;-65
2022/04/07 12:55:11;;;;;;;5.65;3.35;;;;;;;;;;6322300;28;20043;-64
2022/04/07 12:58:12;;;;;;;5.13;2.95;;;;;;;;;;6321058;28;20044;-65
2022/04/07 13:01:21;;;;;;;5.82;2.50;;;;;;;;;;6319467;28;20510;-66
2022/04/07 13:04:22;;;;;;;7.00;2.33;;;;;;;;;;6319786;28;20070;-65
2022/04/07 13:07:22;;;;;;;5.45;2.20;;;;;;;;;;6321633;28;20073;-65
2022/04/07 13:10:24;;;;;;;4.18;2.50;;;;;;;;;;6321234;28;20040;-65
2022/04/07 13:13:24;;;;;;;5.78;2.38;;;;;;;;;;6323281;28;20974;-65
2022/04/07 13:16:25;;;;;;;3.70;2.40;;;;;;;;;;6317208;28;20052;-67
2022/04/07 13:19:25;;;;;;;5.53;3.00;;;;;;;;;;6326290;27;20161;-66
2022/04/07 13:22:26;;;;;;;3.72;2.03;;;;;;;;;;6325528;28;20052;-66
2022/04/07 13:25:27;;;;;;;5.00;2.30;;;;;;;;;;6319341;28;20139;-65
2022/04/07 13:28:28;;;;;;;4.05;2.45;;;;;;;;;;6322138;28;20131;-65
2022/04/07 13:31:28;;;;;;;3.97;2.30;;;;;;;;;;6300820;28;20482;-66
2022/04/07 13:34:29;;;;;;;4.30;2.20;;;;;;;;;;6327897;28;20058;-65
2022/04/07 13:37:29;;;;;;;5.70;2.53;;;;;;;;;;6325622;28;20565;-65
2022/04/07 13:40:30;;;;;;;4.88;2.30;;;;;;;;;;6301862;28;20055;-63
2022/04/07 13:43:31;;;;;;;4.13;2.30;;;;;;;;;;6322562;28;20405;-64
2022/04/07 13:46:32;;;;;;;4.95;2.60;;;;;;;;;;6301517;28;20241;-63
2022/04/07 13:49:33;;;;;;;4.75;2.42;;;;;;;;;;6315619;28;20383;-63
2022/04/07 13:52:35;;;;;;;4.03;2.20;;;;;;;;;;6322009;28;20071;-63
2022/04/07 13:55:35;;;;;;;4.28;2.30;;;;;;;;;;6316600;28;20119;-62
2022/04/07 13:58:36;;;;;;;4.15;2.40;;;;;;;;;;6317497;28;20044;-65
2022/04/07 14:01:37;;;;;;;4.65;2.40;;;;;;;;;;6316910;28;20076;-66
2022/04/07 14:04:38;;;;;;;4.28;2.22;;;;;;;;;;6319546;28;20483;-64
2022/04/07 14:07:39;;;;;;;4.07;2.00;;;;;;;;;;6325951;28;20131;-66
2022/04/07 14:10:42;;;;;;;4.07;1.80;;;;;;;;;;6317228;28;20051;-66
2022/04/07 14:13:43;;;;;;;4.63;1.83;;;;;;;;;;6326086;28;20135;-64
2022/04/07 14:16:44;;;;;;;6.35;1.88;;;;;;;;;;6322843;28;20437;-67
2022/04/07 14:19:44;;;;;;;3.65;1.98;;;;;;;;;;6322379;28;20048;-62
2022/04/07 14:22:45;;;;;;;3.70;1.92;;;;;;;;;;6325965;28;20561;-63
2022/04/07 14:25:46;;;;;;;4.43;2.08;;;;;;;;;;6327776;28;20052;-66
2022/04/07 14:28:46;;;;;;;3.85;1.83;;;;;;;;;;6337164;28;20478;-66
2022/04/07 14:31:47;;;;;;;4.57;1.98;;;;;;;;;;6336878;27;20508;-65
2022/04/07 14:34:49;;;;;;;3.97;1.83;;;;;;;;;;6338733;27;20134;-65
2022/04/07 14:37:52;;;;;;;4.88;2.08;;;;;;;;;;6338800;28;20075;-63
2022/04/07 14:40:53;;;;;;;5.85;3.20;;;;;;;;;;6327675;28;20086;-64
2022/04/07 14:43:53;;;;;;;3.47;2.15;;;;;;;;;;6326003;28;20051;-65
2022/04/07 14:46:54;;;;;;;3.88;1.77;;;;;;;;;;6330803;28;21505;-67
2022/04/07 14:49:55;;;;;;;4.60;1.75;;;;;;;;;;6329984;28;20876;-63
2022/04/07 14:52:56;;;;;;;2.95;1.52;;;;;;;;;;6329335;28;20051;-65
2022/04/07 14:55:56;;;;;;;6.05;2.10;;;;;;;;;;6331963;28;20080;-64
2022/04/07 14:58:57;;;;;;;4.57;2.28;;;;;;;;;;6330245;28;20855;-65
2022/04/07 15:01:58;;;;;;;3.40;1.40;;;;;;;;;;6308102;28;20055;-64
2022/04/07 15:04:59;;;;;;;3.08;1.60;;;;;;;;;;6332605;28;20063;-64
2022/04/07 15:07:59;;;;;;;4.18;2.00;;;;;;;;;;6332787;28;20120;-64
2022/04/07 15:11:01;;;;;;;4.35;2.03;;;;;;;;;;6331505;28;20040;-63
2022/04/07 15:14:02;;;;;;;10.95;1.83;;;;;;;;;;6329781;28;20135;-64
2022/04/07 15:17:03;;;;;;;6.82;2.92;;;;;;;;;;6333645;28;20040;-65
2022/04/07 15:20:04;;;;;;;4.00;2.22;;;;;;;;;;6332643;28;20138;-64
2022/04/07 15:23:05;;;;;;;5.97;2.70;;;;;;;;;;6328775;28;20152;-64
2022/04/07 15:26:06;;;;;;;3.50;2.00;;;;;;;;;;6333463;28;20494;-63
2022/04/07 15:29:07;;;;;;;4.95;2.00;;;;;;;;;;6332123;28;20047;-64
2022/04/07 15:32:09;;;;;;;5.97;1.65;;;;;;;;;;6329810;28;20540;-64
2022/04/07 15:35:10;;;;;;;4.85;1.95;;;;;;;;;;6333061;28;20067;-64
2022/04/07 15:38:11;;;;;;;6.33;2.00;;;;;;;;;;6330937;28;20116;-62
2022/04/07 15:41:12;;;;;;;4.15;2.10;;;;;;;;;;6330118;28;20047;-64
2022/04/07 15:44:13;;;;;;;3.97;1.95;;;;;;;;;;6329660;27;20113;-62
2022/04/07 15:47:13;;;;;;;7.63;2.15;;;;;;;;;;6329324;28;20608;-63
2022/04/07 15:50:14;;;;;;;4.40;2.22;;;;;;;;;;6329308;28;20417;-64
2022/04/07 15:53:15;;;;;;;6.07;2.50;;;;;;;;;;6306219;28;20055;-64
2022/04/07 15:56:16;;;;;;;6.88;2.20;;;;;;;;;;6330613;28;21335;-63
2022/04/07 15:59:17;;;;;;;3.63;2.00;;;;;;;;;;6329118;28;20134;-63
2022/04/07 16:02:17;;;;;;;5.55;2.50;;;;;;;;;;6327807;28;20060;-61
2022/04/07 16:05:18;;;;;;;4.30;2.25;;;;;;;;;;6331602;28;20425;-64
2022/04/07 16:08:19;;;;;;;8.88;2.33;;;;;;;;;;6329938;28;20142;-63
2022/04/07 16:11:20;;;;;;;5.60;1.90;;;;;;;;;;6327471;28;20073;-63
2022/04/07 16:14:21;;;;;;;6.07;2.28;;;;;;;;;;6329681;28;20125;-68
2022/04/07 16:17:22;;;;;;;4.45;2.20;;;;;;;;;;6327970;28;20087;-62
2022/04/07 16:20:23;;;;;;;5.43;2.50;;;;;;;;;;6328303;28;20256;-62
2022/04/07 16:23:23;;;;;;;4.28;2.40;;;;;;;;;;6326609;27;20047;-63
2022/04/07 16:26:25;;;;;;;3.78;2.00;;;;;;;;;;6328634;28;20127;-64
2022/04/07 16:29:27;;;;;;;4.10;2.15;;;;;;;;;;6306506;28;20482;-62
2022/04/07 16:32:28;;;;;;;6.57;2.05;;;;;;;;;;6326061;28;20051;-64
2022/04/07 16:35:29;;;;;;;5.63;2.17;;;;;;;;;;6330308;28;20387;-64
2022/04/07 16:38:29;;;;;;;6.00;2.30;;;;;;;;;;6331311;28;20039;-63
2022/04/07 16:41:30;;;;;;;5.38;2.70;;;;;;;;;;6323081;28;20059;-61
2022/04/07 16:44:31;;;;;;;5.72;2.20;;;;;;;;;;6322756;28;20125;-63
2022/04/07 16:47:32;;;;;;;8.07;2.55;;;;;;;;;;6322861;28;20039;-63
2022/04/07 16:50:33;;;;;;;4.77;2.00;;;;;;;;;;6299916;28;20697;-61
2022/04/07 16:53:34;;;;;;;6.07;2.10;;;;;;;;;;6322582;28;20048;-63
2022/04/07 16:56:36;;;;;;;4.80;2.17;;;;;;;;;;6325987;28;20490;-64
2022/04/07 16:59:37;;;;;;;;;;;;;;;;;;6305513;28;20078;-64
2022/04/07 17:02:38;;;;;;;5.45;2.40;;;;;;;;;;6322377;28;19927;-66
2022/04/07 17:05:38;;;;;;;7.30;2.77;;;;;;;;;;6324345;28;20051;-65
2022/04/07 17:08:39;;;;;;;7.38;3.53;;;;;;;;;;6325444;28;20056;-65
2022/04/07 17:11:41;;;;;;;6.63;3.45;;;;;;;;;;6322900;28;20039;-65
2022/04/07 17:14:41;;;;;;;5.90;2.30;;;;;;;;;;6321985;27;20502;-64
2022/04/07 17:17:45;;;;;;;4.57;1.98;;;;;;;;;;6325504;28;20139;-64
2022/04/07 17:20:48;;;;;;;4.85;2.15;;;;;;;;;;6321109;28;20060;-64
2022/04/07 17:23:49;;;;;;;6.13;2.75;;;;;;;;;;6323039;28;20656;-63
2022/04/07 17:26:49;;;;;;;5.43;1.88;;;;;;;;;;6324901;28;20051;-65
2022/04/07 17:29:50;;;;;;;4.25;1.40;;;;;;;;;;6322102;28;20147;-63
2022/04/07 17:32:51;;;;;;;5.25;1.67;;;;;;;;;;6326925;28;20057;-64
2022/04/07 17:35:52;;;;;;;4.25;1.80;;;;;;;;;;6330556;28;20055;-65
2022/04/07 17:38:52;;;;;;;5.25;1.70;;;;;;;;;;6329629;28;20177;-65
2022/04/07 17:41:53;;;;;;;4.38;1.60;;;;;;;;;;6321828;28;20036;-63
2022/04/07 17:44:57;;;;;;;3.90;1.90;;;;;;;;;;6328319;28;20536;-64
2022/04/07 17:47:58;;;;;;;7.32;2.70;;;;;;;;;;6331266;28;20071;-63
2022/04/07 17:51:01;;;;;;;6.57;2.30;;;;;;;;;;6328160;27;20858;-65
2022/04/07 17:54:02;;;;;;;4.85;2.00;;;;;;;;;;6328160;28;20180;-65
2022/04/07 17:57:04;;;;;;;3.97;1.73;;;;;;;;;;6333879;28;20039;-64
2022/04/07 18:00:06;;;;;;;6.63;2.55;;;;;;;;;;6332404;28;20439;-65
2022/04/07 18:03:06;;;;;;;5.18;2.40;;;;;;;;;;6331927;28;20040;-64
2022/04/07 18:06:08;;;;;;;3.90;1.73;;;;;;;;;;6329504;27;22086;-65
2022/04/07 18:09:10;;;;;;;5.25;1.83;;;;;;;;;;6329649;28;20616;-65
2022/04/07 18:12:11;;;;;;;6.25;1.90;;;;;;;;;;6330204;28;20047;-64
2022/04/07 18:15:11;;;;;;;4.70;1.83;;;;;;;;;;6331917;28;20095;-65
2022/04/07 18:18:12;;;;;;;5.07;1.70;;;;;;;;;;6331249;28;20054;-64